createdAt,value
2022-10-19T00:00:37.233Z,1.02
2022-10-19T00:05:38.815Z,1.40
2022-10-19T00:10:40.921Z,1.20
2022-10-19T00:15:42.487Z,1.30
2022-10-19T00:20:43.866Z,1.30
2022-10-19T00:25:54.429Z,1.00
2022-10-19T00:30:55.938Z,1.17
2022-10-19T00:35:57.400Z,1.10
2022-10-19T00:40:58.823Z,1.00
2022-10-19T00:46:00.293Z,1.17
2022-10-19T00:51:01.691Z,1.30
2022-10-19T00:56:05.531Z,1.42
2022-10-19T01:01:08.784Z,1.20
2022-10-19T01:06:11.042Z,1.10
2022-10-19T01:11:21.643Z,1.52
2022-10-19T01:16:30.443Z,1.08
2022-10-19T01:21:38.088Z,1.00
2022-10-19T01:26:48.622Z,1.08
2022-10-19T01:31:56.035Z,1.20
2022-10-19T01:36:57.433Z,1.20
2022-10-19T01:42:12.825Z,1.10
2022-10-19T01:47:20.038Z,1.30
2022-10-19T01:52:22.035Z,1.02
2022-10-19T01:57:25.696Z,0.98
2022-10-19T02:02:27.828Z,1.00
2022-10-19T02:07:29.725Z,1.42
2022-10-19T02:12:31.868Z,1.50
2022-10-19T02:17:35.834Z,1.40
2022-10-19T02:22:37.459Z,1.02
2022-10-19T02:27:41.883Z,1.15
2022-10-19T02:32:44.104Z,1.10
2022-10-19T02:37:45.666Z,1.63
2022-10-19T02:42:56.221Z,1.25
2022-10-19T02:48:00.844Z,1.40
2022-10-19T02:53:02.260Z,1.20
2022-10-19T02:58:03.665Z,1.63
2022-10-19T03:03:05.037Z,1.52
2022-10-19T03:08:06.423Z,1.30
2022-10-19T03:13:07.979Z,1.20
2022-10-19T03:18:09.340Z,1.40
2022-10-19T03:23:10.794Z,1.52
2022-10-19T03:28:12.264Z,1.55
2022-10-19T03:33:13.732Z,1.52
2022-10-19T03:38:15.162Z,1.52
2022-10-19T03:43:16.540Z,1.45
2022-10-19T03:48:17.940Z,1.35
2022-10-19T03:53:19.357Z,1.40
2022-10-19T03:58:20.772Z,1.30
2022-10-19T04:03:22.174Z,1.45
2022-10-19T04:08:23.563Z,1.60
2022-10-19T04:13:24.930Z,1.33
2022-10-19T04:18:26.332Z,1.30
2022-10-19T04:23:28.718Z,1.55
2022-10-19T04:28:30.526Z,1.40
2022-10-19T04:33:32.138Z,1.67
2022-10-19T04:38:34.077Z,2.20
2022-10-19T04:43:36.064Z,2.20
2022-10-19T04:48:38.286Z,1.90
2022-10-19T04:53:40.465Z,1.67
2022-10-19T04:58:41.987Z,1.52
2022-10-19T05:03:43.725Z,1.70
2022-10-19T05:08:45.119Z,1.45
2022-10-19T05:13:47.061Z,1.48
2022-10-19T05:18:49.482Z,1.73
2022-10-19T05:23:52.266Z,1.30
2022-10-19T05:28:56.620Z,1.30
2022-10-19T05:33:58.692Z,2.33
2022-10-19T05:39:01.609Z,1.40
2022-10-19T05:44:03.648Z,1.77
2022-10-19T05:49:05.085Z,2.40
2022-10-19T05:54:07.894Z,2.60
2022-10-19T05:59:11.229Z,1.60
2022-10-19T06:04:15.000Z,1.80
2022-10-19T06:09:16.444Z,2.08
2022-10-19T06:14:17.865Z,2.63
2022-10-19T06:19:19.254Z,2.85
2022-10-19T06:24:20.636Z,2.60
2022-10-19T06:29:22.086Z,2.30
2022-10-19T06:34:23.632Z,1.50
2022-10-19T06:39:25.100Z,1.88
2022-10-19T06:44:27.378Z,1.80
2022-10-19T06:49:28.882Z,1.70
2022-10-19T06:54:30.313Z,1.80
2022-10-19T06:59:31.783Z,2.22
2022-10-19T07:04:33.187Z,2.63
2022-10-19T07:09:34.945Z,1.48
2022-10-19T07:14:38.938Z,1.90
2022-10-19T07:19:40.375Z,2.00
2022-10-19T07:24:41.816Z,2.15
2022-10-19T07:29:43.271Z,1.70
2022-10-19T07:34:44.687Z,1.70
2022-10-19T07:39:46.062Z,2.10
2022-10-19T07:44:47.457Z,1.65
2022-10-19T07:49:48.856Z,1.77
2022-10-19T07:54:50.270Z,2.08
2022-10-19T07:59:51.722Z,2.22
2022-10-19T08:05:01.837Z,2.53
2022-10-19T08:10:05.658Z,1.95
2022-10-19T08:15:07.318Z,1.92
2022-10-19T08:20:09.047Z,1.67
2022-10-19T08:25:10.663Z,1.83
2022-10-19T08:30:12.199Z,2.03
2022-10-19T08:35:13.620Z,2.25
2022-10-19T08:40:20.828Z,2.10
2022-10-19T08:45:37.346Z,1.65
2022-10-19T08:50:39.972Z,2.35
2022-10-19T08:55:47.442Z,2.15
2022-10-19T09:01:01.011Z,1.70
2022-10-19T09:06:13.058Z,2.30
2022-10-19T09:11:15.211Z,2.08
2022-10-19T09:16:17.702Z,1.77
2022-10-19T09:21:31.114Z,2.00
2022-10-19T09:26:45.962Z,2.05
2022-10-19T09:31:48.017Z,2.25
2022-10-19T09:36:52.283Z,1.98
2022-10-19T09:41:57.979Z,1.77
2022-10-19T09:47:17.564Z,2.15
2022-10-19T09:52:38.918Z,2.05
2022-10-19T09:57:43.744Z,2.08
2022-10-19T10:02:55.537Z,1.98
2022-10-19T10:07:56.981Z,2.38
2022-10-19T10:12:59.277Z,1.95
2022-10-19T10:18:00.747Z,2.35
2022-10-19T10:23:03.593Z,1.77
2022-10-19T10:28:25.317Z,1.92
2022-10-19T10:33:43.869Z,2.10
2022-10-19T10:38:50.015Z,1.77
2022-10-19T10:44:00.995Z,2.80
2022-10-19T10:49:07.005Z,1.80
2022-10-19T10:54:20.447Z,2.22
2022-10-19T10:59:24.226Z,2.20
2022-10-19T11:04:28.635Z,1.95
2022-10-19T11:09:38.172Z,1.73
2022-10-19T11:14:45.674Z,1.98
2022-10-19T11:19:47.161Z,1.65
2022-10-19T11:25:01.040Z,1.88
2022-10-19T11:30:11.734Z,2.30
2022-10-19T11:35:25.454Z,1.70
2022-10-19T11:40:30.275Z,2.20
2022-10-19T11:45:37.441Z,1.98
2022-10-19T11:50:54.202Z,1.85
2022-10-19T11:56:09.349Z,2.22
2022-10-19T12:01:36.002Z,2.10
2022-10-19T12:06:56.120Z,2.10
2022-10-19T12:11:57.549Z,1.80
2022-10-19T12:17:02.075Z,1.70
2022-10-19T12:22:04.899Z,1.65
2022-10-19T12:27:06.860Z,1.83
2022-10-19T12:32:10.947Z,1.88
2022-10-19T12:37:12.364Z,2.25
2022-10-19T12:42:21.693Z,2.10
2022-10-19T12:47:24.471Z,2.38
2022-10-19T12:52:39.727Z,2.05
2022-10-19T12:57:43.541Z,2.97
2022-10-19T13:02:46.224Z,2.20
2022-10-19T13:07:49.045Z,2.45
2022-10-19T13:12:50.821Z,2.38
2022-10-19T13:17:52.329Z,1.75
2022-10-19T13:22:59.658Z,2.35
2022-10-19T13:28:07.296Z,1.95
2022-10-19T13:33:30.312Z,2.55
2022-10-19T13:38:50.586Z,2.08
2022-10-19T13:43:55.423Z,2.25
2022-10-19T13:49:05.778Z,2.30
2022-10-19T13:54:26.189Z,2.15
2022-10-19T13:59:36.787Z,2.70
2022-10-19T14:04:56.745Z,2.17
2022-10-19T14:10:17.624Z,2.30
2022-10-19T14:15:23.598Z,2.75
2022-10-19T14:20:25.065Z,2.45
2022-10-19T14:25:27.668Z,2.28
2022-10-19T14:30:31.505Z,2.53
2022-10-19T14:35:37.218Z,2.90
2022-10-19T14:40:40.170Z,3.13
2022-10-19T14:45:41.662Z,2.50
2022-10-19T14:50:55.339Z,2.67
2022-10-19T14:55:58.753Z,2.80
2022-10-19T15:01:00.224Z,3.45
2022-10-19T15:06:03.409Z,3.20
2022-10-19T15:11:06.119Z,3.97
2022-10-19T15:16:26.818Z,3.45
2022-10-19T15:21:29.453Z,3.30
2022-10-19T15:26:33.034Z,3.95
2022-10-19T15:31:34.687Z,3.28
2022-10-19T15:36:36.131Z,3.72
2022-10-19T15:41:38.436Z,4.25
2022-10-19T15:46:40.402Z,3.42
2022-10-19T15:51:45.057Z,19.63
2022-10-19T15:56:50.503Z,8.25
2022-10-19T16:01:53.766Z,6.32
2022-10-19T16:06:57.349Z,6.13
2022-10-19T16:11:58.739Z,3.45
2022-10-19T16:17:02.742Z,3.60
2022-10-19T16:22:04.205Z,3.58
2022-10-19T16:27:05.797Z,3.70
2022-10-19T16:32:07.211Z,4.22
2022-10-19T16:37:08.576Z,5.25
2022-10-19T16:42:09.970Z,4.90
2022-10-19T16:47:11.405Z,6.78
2022-10-19T16:52:15.970Z,6.70
2022-10-19T16:57:17.515Z,6.90
2022-10-19T17:02:19.588Z,6.80
2022-10-19T17:07:21.131Z,6.97
2022-10-19T17:12:22.654Z,6.80
2022-10-19T17:17:24.071Z,4.70
2022-10-19T17:22:25.782Z,4.78
2022-10-19T17:32:29.572Z,5.40
2022-10-19T17:37:31.100Z,4.70
2022-10-19T17:42:36.505Z,4.20
2022-10-19T17:47:38.407Z,3.78
2022-10-19T17:52:39.920Z,4.40
2022-10-19T17:57:41.324Z,3.13
2022-10-19T18:02:44.011Z,3.15
2022-10-19T18:07:45.726Z,2.72
2022-10-19T18:12:48.056Z,2.42
2022-10-19T18:17:49.474Z,3.08
2022-10-19T18:22:50.941Z,2.75
2022-10-19T18:27:52.693Z,2.67
2022-10-19T18:32:54.338Z,2.75
2022-10-19T18:37:55.746Z,3.50
2022-10-19T18:42:57.185Z,2.90
2022-10-19T18:47:58.756Z,2.60
2022-10-19T18:53:00.137Z,2.80
2022-10-19T18:58:01.634Z,3.30
2022-10-19T19:03:03.054Z,3.85
2022-10-19T19:08:04.556Z,4.22
2022-10-19T19:13:05.996Z,4.10
2022-10-19T19:18:07.456Z,3.95
2022-10-19T19:23:08.928Z,4.03
2022-10-19T19:28:10.447Z,4.10
2022-10-19T19:33:12.203Z,3.63
2022-10-19T19:38:14.385Z,3.30
2022-10-19T19:43:15.916Z,3.90
2022-10-19T19:48:17.361Z,3.60
2022-10-19T19:53:18.788Z,3.70
2022-10-19T19:58:20.229Z,3.63
2022-10-19T20:03:21.637Z,3.75
2022-10-19T20:08:23.475Z,3.92
2022-10-19T20:13:24.872Z,3.70
2022-10-19T20:18:26.323Z,3.60
2022-10-19T20:23:28.255Z,3.50
2022-10-19T20:28:31.538Z,3.60
2022-10-19T20:33:33.991Z,3.78
2022-10-19T20:38:35.951Z,4.00
2022-10-19T20:43:37.609Z,4.15
2022-10-19T20:48:40.284Z,3.47
2022-10-19T20:53:42.493Z,3.15
2022-10-19T20:58:45.288Z,3.38
2022-10-19T21:03:48.268Z,3.40
2022-10-19T21:08:50.055Z,3.33
2022-10-19T21:13:55.572Z,3.30
2022-10-19T21:18:57.243Z,3.40
2022-10-19T21:24:04.680Z,3.47
2022-10-19T21:29:09.548Z,2.88
2022-10-19T21:34:12.549Z,3.70
2022-10-19T21:39:13.973Z,3.40
2022-10-19T21:44:16.281Z,3.53
2022-10-19T21:49:18.068Z,3.25
2022-10-19T21:54:21.402Z,3.35
2022-10-19T21:59:22.869Z,3.45
2022-10-19T22:04:24.270Z,3.35
2022-10-19T22:09:25.647Z,3.90
2022-10-19T22:14:27.059Z,3.38
2022-10-19T22:19:28.487Z,3.67
2022-10-19T22:24:29.915Z,3.90
2022-10-19T22:29:31.392Z,3.42
2022-10-19T22:34:32.908Z,3.50
2022-10-19T22:39:34.325Z,3.17
2022-10-19T22:44:35.815Z,4.22
2022-10-19T22:49:37.267Z,4.40
2022-10-19T22:54:38.647Z,4.10
2022-10-19T22:59:40.109Z,3.80
2022-10-19T23:52:16.430Z,4.20
2022-10-19T23:57:17.836Z,4.18
